Hinton, OK

7:18 AM CDT on July 10, 2014 (GMT -0500)
Watonga (KJWG) Elev 1549 ft | 35.86 °N, 98.42 °W | Change Station

Current weather conditions updated 23 minutes ago

Mostly Cloudy
Mostly Cloudy
73 °F
Feels Like 73 °F
N
18
Wind Variable Wind from North
Gusts 32 mph

Today is forecast to be Much Warmer than yesterday.

Today
High -- | Low -- °F
--% Chance of Precip.
Yesterday
High -- | Low -- °F
Precip. -- in
6:26 AM 8:50 PM
Waxing Gibbous, 94% visible
Pressure 30.04 in
Visibility 10.0 miles
Clouds Scattered Clouds 1200 ft
Scattered Clouds 2300 ft
Mostly Cloudy 11000 ft
Dew Point 73 °F
Humidity 100%
Rainfall 0.00 in
Snow Depth Not available.
UV 0 out of 12
Pollen 4.40 out of 12
Air Quality Not available.
Flu Activity Local Activity
METAR KJWG 101155Z AUTO 01016G28KT 10SM SCT012 SCT023 BKN110 23/23 A3004 RMK AO2 LTG DSNT NE 70077 T02300230 10240 20227

More Conditions Fewer Conditions

Pressure 30.04 in
Visibility 10.0 miles
Clouds Scattered Clouds 1200 ft
Scattered Clouds 2300 ft
Mostly Cloudy 11000 ft
Dew Point 73 °F
Humidity 100%
Rainfall 0.00 in
Snow Depth Not available.
UV 0 out of 12
Pollen 4.40 out of 12
Air Quality Not available.
Flu Activity Local Activity
METAR KJWG 101155Z AUTO 01016G28KT 10SM SCT012 SCT023 BKN110 23/23 A3004 RMK AO2 LTG DSNT NE 70077 T02300230 10240 20227

More Conditions Fewer Conditions

10-Day Weather Forecast

Almanac

Astronomy

Jul. 10, 2014 Rise Set
Actual Time 6:26 AM CDT 8:50 PM CDT
Civil Twilight 5:57 AM CDT 9:20 PM CDT
Nautical Twilight 5:20 AM CDT 9:56 PM CDT
Astronomical Twilight 4:40 AM CDT 10:36 PM CDT
Moon 7:07 PM CDT 4:37 AM CDT
Length of Visible Light 15h 23m
Length of Day
14h 24m
Tomorrow will be 0m 56s shorter.
Waxing Gibbous, 94% of the Moon is Illuminated
Today
Waxing Gibbous
Jul 12
Full
Jul 18
Last Quarter
Jul 26
New
Aug 3
First Quarter

Today's Extremes

State Highs State Lows

Community

WunderPhotos

Upload Photos

1,732,111 photos uploaded!

Nearby

Snow Depth

Station Depth Elevation
No new snow has been reported.

Earthquake Activity

City Distance Mag. Time & Date
Blackwell, Oklahoma 109 miles 3.1 11:55 PM CDT
2014-07-03
Cherokee, Oklahoma 90 miles 3.0 3:24 PM CDT
2014-07-03
Perkins, Oklahoma 80 miles 3.2 3:14 PM CDT
2014-07-03
Pawnee, Oklahoma 101 miles 2.9 11:09 AM CDT
2014-07-03
Minimum magnitude displayed is 2.5.

Coastal Water Temperatures

Place Temperature
No Stations Reporting

Nearby Weather Stations

Station Location Temp. Heat Index Dew Point Humidity Wind Precip. Elev Updated Type
MesoWest FORT RENO #1 , El Reno, OK 72 °F - 70 °F 92% ESE  at  6 mph 0.00 in / hr 1399 ft 6:00 AM CDT MADIS
MesoWest JENSEN , El Reno, OK 73 °F 71 °F - - North  at  - 0.00 in / hr 1376 ft 3:50 AM CDT MADIS
E. Mills and S. Rock Island Ave, El Reno, OK 73.6 °F 72 °F 70 °F 89% NNW  at  7.8 mph - / hr 1385 ft 7:12 AM CDT Normal

Show More Stations Show Fewer Stations